Time;durP1;ratioP1;P1;durP2;ratioP2;P2;SDS_P1;SDS_P2;PMS_P1;PMS_P2;Temp;Humidity;BMP_temperature;BMP_pressure;BME280_temperature;BME280_humidity;BME280_pressure;Samples;Min_cycle;Max_cycle;Signal;HPM_P1;HPM_P2
2022/06/19 00:01:45;;;;;;;2.28;2.05;;;20.40;99.90;;;;;;5030255;28;20203;-81
2022/06/19 00:04:12;;;;;;;4.13;2.07;;;20.20;99.90;;;;;;5032394;28;20274;-81
2022/06/19 00:06:39;;;;;;;4.57;1.93;;;20.40;99.90;;;;;;5034031;28;20187;-81
2022/06/19 00:09:06;;;;;;;4.77;2.20;;;20.20;99.90;;;;;;5032963;28;20193;-81
2022/06/19 00:11:33;;;;;;;3.67;2.00;;;20.10;99.90;;;;;;5033015;28;20198;-81
2022/06/19 00:13:59;;;;;;;3.57;2.00;;;19.90;99.90;;;;;;5033424;28;20617;-81
2022/06/19 00:16:25;;;;;;;4.65;2.03;;;19.90;99.90;;;;;;5001397;28;20519;-81
2022/06/19 00:18:51;;;;;;;5.57;2.60;;;19.80;99.90;;;;;;5033117;28;20210;-81
2022/06/19 00:21:17;;;;;;;2.90;2.43;;;19.90;99.90;;;;;;5031766;28;20178;-81
2022/06/19 00:23:45;;;;;;;3.83;2.23;;;19.80;99.90;;;;;;5032556;28;20210;-81
2022/06/19 00:26:12;;;;;;;3.73;2.20;;;19.70;99.90;;;;;;5032455;28;20191;-81
2022/06/19 00:28:39;;;;;;;6.93;1.90;;;19.80;99.90;;;;;;5000280;28;20179;-81
2022/06/19 00:31:05;;;;;;;6.57;2.10;;;19.60;99.90;;;;;;5030796;28;20183;-81
2022/06/19 00:33:31;;;;;;;4.63;1.90;;;19.70;99.90;;;;;;5030133;28;20614;-80
2022/06/19 00:35:56;;;;;;;2.83;1.80;;;19.70;99.90;;;;;;5029560;28;20270;-81
2022/06/19 00:38:22;;;;;;;4.83;2.10;;;19.60;99.90;;;;;;5029464;28;20650;-81
2022/06/19 00:40:48;;;;;;;3.43;2.00;;;19.60;99.90;;;;;;5030310;28;20172;-81
2022/06/19 00:43:13;;;;;;;6.13;2.23;;;19.60;99.90;;;;;;5029831;28;20683;-81
2022/06/19 00:45:49;;;;;;;4.03;1.97;;;19.50;99.90;;;;;;5030971;28;20182;-81
2022/06/19 00:48:31;;;;;;;5.60;2.10;;;19.40;99.90;;;;;;5029988;28;20179;-81
2022/06/19 00:51:00;;;;;;;2.40;1.90;;;19.50;99.90;;;;;;5029496;28;20694;-81
2022/06/19 00:53:46;;;;;;;5.30;2.00;;;19.40;99.90;;;;;;4996570;28;20196;-80
2022/06/19 00:56:18;;;;;;;7.07;2.10;;;19.20;99.90;;;;;;5029940;28;20178;-81
2022/06/19 00:58:47;;;;;;;5.97;1.70;;;19.10;99.90;;;;;;5030585;28;20203;-81
2022/06/19 01:01:18;;;;;;;7.33;2.20;;;19.00;99.90;;;;;;5029532;28;20175;-81
2022/06/19 01:03:56;;;;;;;6.23;1.90;;;19.10;99.90;;;;;;5029216;28;20190;-81
2022/06/19 01:06:23;;;;;;;4.60;2.40;;;19.00;99.90;;;;;;5030486;28;20163;-81
2022/06/19 01:08:50;;;;;;;6.67;1.83;;;18.90;99.90;;;;;;5029862;28;20175;-81
2022/06/19 01:11:18;;;;;;;5.00;1.83;;;19.00;99.90;;;;;;5030153;28;20171;-81
2022/06/19 01:13:44;;;;;;;2.50;1.80;;;19.10;99.90;;;;;;5029889;28;20182;-81
2022/06/19 01:16:12;;;;;;;2.73;1.83;;;19.00;99.90;;;;;;5030970;28;20199;-81
2022/06/19 01:18:39;;;;;;;5.53;1.83;;;18.80;99.90;;;;;;5030881;28;20207;-80
2022/06/19 01:21:22;;;;;;;3.87;1.60;;;18.80;99.90;;;;;;5030523;28;20167;-80
2022/06/19 01:24:25;;;;;;;4.73;1.90;;;18.80;99.90;;;;;;5030159;28;20175;-81
2022/06/19 01:26:55;;;;;;;4.00;1.97;;;18.60;99.90;;;;;;5029777;28;20210;-81
2022/06/19 01:29:20;;;;;;;4.40;2.07;;;18.50;99.90;;;;;;5029780;28;20174;-81
2022/06/19 01:31:53;;;;;;;3.60;1.80;;;18.40;99.90;;;;;;5030535;28;20245;-81
2022/06/19 01:34:32;;;;;;;5.93;1.87;;;18.30;99.90;;;;;;5029596;28;20179;-80
2022/06/19 01:37:16;;;;;;;7.13;1.77;;;18.50;99.90;;;;;;5031147;28;20237;-81
2022/06/19 01:39:46;;;;;;;5.73;2.20;;;18.10;99.90;;;;;;5031243;28;20203;-81
2022/06/19 01:42:13;;;;;;;5.23;1.67;;;18.10;99.90;;;;;;5030429;28;20602;-82
2022/06/19 01:44:40;;;;;;;11.33;2.03;;;18.10;99.90;;;;;;5030179;28;20177;-81
2022/06/19 01:47:06;;;;;;;4.60;1.73;;;18.30;99.90;;;;;;5030817;28;20171;-80
2022/06/19 01:49:34;;;;;;;8.80;2.20;;;18.10;99.90;;;;;;5031154;28;20190;-81
2022/06/19 01:52:02;;;;;;;6.00;2.30;;;18.10;99.90;;;;;;5030646;28;20201;-81
2022/06/19 01:54:36;;;;;;;4.17;2.00;;;18.00;99.90;;;;;;5030223;28;20186;-81
2022/06/19 01:57:05;;;;;;;3.93;2.00;;;18.00;99.90;;;;;;5029730;28;20573;-81
2022/06/19 01:59:33;;;;;;;8.37;1.97;;;18.10;99.90;;;;;;5029967;28;20198;-81
2022/06/19 02:02:02;;;;;;;4.93;1.77;;;17.90;99.90;;;;;;5029615;28;20199;-81
2022/06/19 02:04:27;;;;;;;8.27;2.20;;;17.80;99.90;;;;;;5028584;28;20171;-81
2022/06/19 02:07:00;;;;;;;11.07;2.83;;;17.70;99.90;;;;;;5028325;28;20177;-80
2022/06/19 02:09:25;;;;;;;11.27;2.43;;;17.70;99.90;;;;;;5028622;28;20287;-81
2022/06/19 02:11:51;;;;;;;12.07;2.73;;;17.70;99.90;;;;;;5028193;28;20676;-81
2022/06/19 02:14:19;;;;;;;16.40;2.83;;;17.60;99.90;;;;;;5028283;28;20185;-81
2022/06/19 02:16:47;;;;;;;12.00;2.63;;;17.70;99.90;;;;;;5028021;28;20182;-81
2022/06/19 02:19:13;;;;;;;8.77;2.27;;;17.60;99.90;;;;;;5029501;28;20203;-81
2022/06/19 02:21:44;;;;;;;10.90;2.50;;;17.50;99.90;;;;;;5028633;28;20218;-81
2022/06/19 02:24:12;;;;;;;13.00;2.80;;;17.50;99.90;;;;;;5027779;28;20186;-81
2022/06/19 02:26:40;;;;;;;5.07;2.10;;;17.50;99.90;;;;;;5027893;28;20172;-81
2022/06/19 02:29:09;;;;;;;9.83;2.13;;;17.50;99.90;;;;;;5028232;28;20775;-80
2022/06/19 02:31:37;;;;;;;10.23;2.20;;;17.40;99.90;;;;;;5029269;28;20202;-80
2022/06/19 02:34:08;;;;;;;11.60;2.30;;;17.40;99.90;;;;;;5029112;28;20195;-81
2022/06/19 02:37:07;;;;;;;11.67;2.67;;;17.40;99.90;;;;;;5029172;28;20243;-81
2022/06/19 02:39:48;;;;;;;8.83;3.10;;;17.30;99.90;;;;;;4973868;28;20227;-81
2022/06/19 02:42:20;;;;;;;17.07;2.97;;;17.40;99.90;;;;;;5028390;28;20750;-81
2022/06/19 02:44:49;;;;;;;14.93;2.47;;;17.30;99.90;;;;;;5027655;28;20544;-81
2022/06/19 02:47:15;;;;;;;5.67;2.20;;;17.30;99.90;;;;;;5028340;28;20190;-81
2022/06/19 02:49:42;;;;;;;11.70;2.27;;;17.20;99.90;;;;;;5028793;28;20188;-81
2022/06/19 02:52:10;;;;;;;9.40;2.50;;;17.10;99.90;;;;;;5027630;28;20809;-81
2022/06/19 02:54:36;;;;;;;9.33;2.07;;;17.20;99.90;;;;;;5026391;28;20267;-81
2022/06/19 02:57:03;;;;;;;10.70;2.37;;;17.30;99.90;;;;;;5027425;28;20207;-82
2022/06/19 02:59:28;;;;;;;13.40;2.30;;;17.20;99.90;;;;;;5027822;28;20199;-81
2022/06/19 03:01:54;;;;;;;13.30;2.60;;;17.20;99.90;;;;;;5028645;28;20249;-81
2022/06/19 03:04:26;;;;;;;13.20;2.57;;;17.10;99.90;;;;;;5034792;28;20229;-81
2022/06/19 03:06:54;;;;;;;7.60;2.17;;;17.00;99.90;;;;;;5034044;28;20182;-81
2022/06/19 03:09:21;;;;;;;13.13;2.70;;;17.00;99.90;;;;;;5033338;28;20171;-81
2022/06/19 03:11:46;;;;;;;10.83;2.10;;;17.00;99.90;;;;;;5034027;28;20231;-82
2022/06/19 03:14:12;;;;;;;9.90;2.47;;;17.00;99.90;;;;;;5033985;28;20182;-81
2022/06/19 03:16:38;;;;;;;13.13;2.27;;;16.80;99.90;;;;;;5000484;28;20180;-80
2022/06/19 03:19:04;;;;;;;15.43;2.50;;;16.90;99.90;;;;;;5029399;28;20206;-80
2022/06/19 03:21:30;;;;;;;11.27;2.20;;;16.70;99.90;;;;;;5028893;28;20178;-81
2022/06/19 03:23:56;;;;;;;7.30;2.00;;;16.70;99.90;;;;;;5029725;28;20176;-80
2022/06/19 03:26:21;;;;;;;15.30;2.77;;;16.50;99.90;;;;;;5028312;28;20199;-80
2022/06/19 03:28:47;;;;;;;13.80;2.37;;;16.60;99.90;;;;;;5029225;28;20243;-81
2022/06/19 03:31:15;;;;;;;6.87;2.23;;;16.50;99.90;;;;;;5028272;28;20261;-80
2022/06/19 03:33:41;;;;;;;11.17;2.63;;;16.50;99.90;;;;;;5028599;28;20179;-80
2022/06/19 03:36:07;;;;;;;17.03;2.80;;;16.50;99.90;;;;;;5028838;28;20185;-81
2022/06/19 03:38:33;;;;;;;12.43;2.57;;;16.50;99.90;;;;;;5028230;28;20304;-80
2022/06/19 03:40:58;;;;;;;15.83;2.83;;;16.50;99.90;;;;;;5028223;28;20184;-80
2022/06/19 03:43:25;;;;;;;7.70;2.00;;;16.40;99.90;;;;;;5028873;28;20194;-81
2022/06/19 03:45:50;;;;;;;8.10;2.00;;;16.40;99.90;;;;;;5028878;28;20650;-80
2022/06/19 03:48:16;;;;;;;11.00;2.27;;;16.40;99.90;;;;;;5028735;28;20171;-80
2022/06/19 03:50:42;;;;;;;7.93;2.20;;;16.20;99.90;;;;;;5028051;28;20168;-80
2022/06/19 03:53:08;;;;;;;10.50;2.13;;;16.30;99.90;;;;;;5027694;28;20549;-80
2022/06/19 03:55:34;;;;;;;13.43;2.60;;;16.40;99.90;;;;;;5028779;28;20585;-80
2022/06/19 03:58:00;;;;;;;8.77;2.07;;;16.20;99.90;;;;;;5028035;28;20191;-80
2022/06/19 04:00:26;;;;;;;13.33;2.90;;;16.20;99.90;;;;;;5027671;28;20668;-80
2022/06/19 04:02:52;;;;;;;14.60;2.60;;;16.20;99.90;;;;;;4996254;28;20192;-80
2022/06/19 04:05:18;;;;;;;15.00;2.70;;;16.10;99.90;;;;;;5028096;28;20534;-80
2022/06/19 04:07:46;;;;;;;14.60;2.77;;;16.10;99.90;;;;;;5028077;28;20175;-80
2022/06/19 04:10:14;;;;;;;13.90;2.90;;;16.10;99.90;;;;;;5028403;28;20233;-80
2022/06/19 04:12:40;;;;;;;16.37;2.90;;;16.10;99.90;;;;;;5027951;28;20229;-80
2022/06/19 04:15:06;;;;;;;16.97;3.30;;;16.10;99.90;;;;;;5027385;28;20175;-81
2022/06/19 04:17:31;;;;;;;14.73;2.90;;;16.00;99.90;;;;;;5028139;28;20180;-80
2022/06/19 04:19:57;;;;;;;9.73;2.80;;;16.10;99.90;;;;;;5028499;28;20203;-80
2022/06/19 04:22:23;;;;;;;12.90;2.67;;;16.10;99.90;;;;;;5028190;28;20531;-80
2022/06/19 04:24:48;;;;;;;18.97;4.07;;;16.00;99.90;;;;;;5028230;28;20195;-80
2022/06/19 04:27:14;;;;;;;18.97;3.10;;;16.10;99.90;;;;;;5028634;28;20179;-81
2022/06/19 04:29:39;;;;;;;12.03;2.93;;;16.20;99.90;;;;;;5028715;28;20219;-80
2022/06/19 04:32:05;;;;;;;16.07;2.93;;;16.30;99.90;;;;;;5027698;28;20337;-80
2022/06/19 04:34:31;;;;;;;12.53;3.13;;;16.30;99.90;;;;;;5028365;28;20573;-81
2022/06/19 04:36:57;;;;;;;18.13;2.70;;;16.40;99.90;;;;;;5028071;28;20179;-80
2022/06/19 04:39:22;;;;;;;22.97;3.13;;;16.40;99.90;;;;;;5028327;28;20293;-81
2022/06/19 04:41:48;;;;;;;17.17;2.70;;;16.50;99.90;;;;;;5028535;28;20195;-80
2022/06/19 04:44:16;;;;;;;8.40;2.40;;;16.60;99.70;;;;;;5028086;28;20378;-81
2022/06/19 04:46:43;;;;;;;13.83;3.43;;;16.80;98.90;;;;;;5028010;28;20186;-80
2022/06/19 04:49:09;;;;;;;17.37;3.07;;;16.60;98.80;;;;;;5027795;28;20175;-80
2022/06/19 04:51:35;;;;;;;12.67;2.43;;;16.90;98.40;;;;;;4995869;28;20694;-80
2022/06/19 04:54:01;;;;;;;7.57;2.20;;;17.10;97.50;;;;;;5027310;28;20180;-81
2022/06/19 04:56:26;;;;;;;13.07;2.60;;;17.10;97.40;;;;;;5027078;28;20237;-80
2022/06/19 04:58:52;;;;;;;13.07;2.47;;;17.30;97.00;;;;;;5027381;28;20215;-80
2022/06/19 05:01:33;;;;;;;12.20;2.20;;;17.10;97.80;;;;;;5026639;28;20203;-80
2022/06/19 05:04:00;;;;;;;13.20;2.70;;;17.20;97.10;;;;;;5029032;28;20205;-81
2022/06/19 05:06:27;;;;;;;17.63;3.10;;;17.20;96.80;;;;;;5030629;28;20210;-80
2022/06/19 05:08:53;;;;;;;18.23;2.73;;;17.10;97.40;;;;;;5025884;28;20183;-80
2022/06/19 05:11:20;;;;;;;17.93;3.03;;;17.20;97.40;;;;;;5025235;28;20187;-80
2022/06/19 05:13:46;;;;;;;12.57;2.50;;;17.20;97.30;;;;;;5027353;28;20267;-81
2022/06/19 05:16:17;;;;;;;18.23;2.53;;;17.20;97.70;;;;;;5025801;28;20201;-80
2022/06/19 05:18:44;;;;;;;15.93;2.57;;;17.40;97.90;;;;;;5025636;28;20247;-81
2022/06/19 05:21:11;;;;;;;10.77;2.20;;;17.30;97.60;;;;;;5026180;28;20258;-80
2022/06/19 05:23:43;;;;;;;9.93;2.10;;;17.30;97.90;;;;;;5025742;28;20199;-80
2022/06/19 05:26:30;;;;;;;18.70;3.10;;;17.50;97.80;;;;;;5025165;28;20183;-80
2022/06/19 05:28:57;;;;;;;16.40;2.40;;;17.90;97.30;;;;;;5025968;28;20175;-80
2022/06/19 05:31:23;;;;;;;12.03;2.27;;;17.80;97.20;;;;;;4994296;28;20171;-80
2022/06/19 05:33:49;;;;;;;16.23;2.60;;;17.90;97.00;;;;;;5025427;28;20258;-80
2022/06/19 05:36:15;;;;;;;18.47;2.67;;;18.00;97.10;;;;;;5025907;28;20712;-80
2022/06/19 05:38:41;;;;;;;19.00;2.70;;;18.20;96.90;;;;;;5025632;28;20217;-80
2022/06/19 05:41:10;;;;;;;10.00;2.10;;;18.30;96.50;;;;;;5025933;28;20164;-81
2022/06/19 05:43:36;;;;;;;15.33;2.30;;;18.20;96.30;;;;;;5026325;28;20279;-80
2022/06/19 05:46:28;;;;;;;8.40;2.00;;;18.00;96.60;;;;;;5028117;28;20199;-80
2022/06/19 05:48:54;;;;;;;17.77;2.60;;;17.40;97.40;;;;;;4991843;28;20282;-80
2022/06/19 05:51:25;;;;;;;12.00;2.20;;;17.60;97.40;;;;;;5026910;28;20213;-80
2022/06/19 05:53:57;;;;;;;18.30;2.37;;;18.00;97.10;;;;;;5027245;28;20183;-80
2022/06/19 05:56:24;;;;;;;16.87;3.00;;;18.10;97.40;;;;;;5027322;28;20225;-80
2022/06/19 05:58:49;;;;;;;8.90;2.20;;;18.50;96.10;;;;;;5027291;28;20286;-80
2022/06/19 06:01:17;;;;;;;11.17;2.20;;;18.80;95.00;;;;;;5026896;28;20199;-80
2022/06/19 06:03:43;;;;;;;15.77;2.67;;;18.90;95.00;;;;;;5026039;28;20210;-80
2022/06/19 06:06:18;;;;;;;13.75;2.40;;;19.10;95.20;;;;;;5028116;28;20176;-80
2022/06/19 06:08:44;;;;;;;8.45;2.20;;;18.70;95.00;;;;;;5027022;28;20274;-80
2022/06/19 06:11:10;;;;;;;18.30;2.65;;;19.00;95.40;;;;;;5026726;28;20187;-80
2022/06/19 06:13:36;;;;;;;10.55;2.28;;;19.40;94.10;;;;;;5026912;28;20207;-80
2022/06/19 06:16:02;;;;;;;10.73;1.75;;;19.50;94.70;;;;;;5027538;28;20175;-80
2022/06/19 06:18:28;;;;;;;13.40;1.90;;;19.80;93.60;;;;;;5027484;28;20179;-81
2022/06/19 06:21:06;;;;;;;13.98;2.30;;;19.60;93.10;;;;;;5026366;28;20218;-80
2022/06/19 06:23:33;;;;;;;11.70;2.40;;;19.60;93.00;;;;;;5027160;28;20193;-80
2022/06/19 06:26:03;;;;;;;8.55;2.33;;;19.90;93.10;;;;;;5027818;28;20214;-80
2022/06/19 06:28:30;;;;;;;9.93;2.03;;;19.40;92.60;;;;;;5028277;28;20640;-81
2022/06/19 06:30:55;;;;;;;14.35;2.15;;;19.20;93.20;;;;;;5026870;28;20175;-79
2022/06/19 06:33:21;;;;;;;9.55;1.67;;;19.20;92.90;;;;;;5027543;28;20187;-80
2022/06/19 06:35:47;;;;;;;11.88;2.03;;;19.90;92.50;;;;;;5027973;28;20176;-80
2022/06/19 06:38:13;;;;;;;14.88;2.33;;;19.90;92.70;;;;;;5030570;28;20167;-80
2022/06/19 06:40:38;;;;;;;12.90;2.15;;;20.10;92.30;;;;;;5033566;28;20177;-80
2022/06/19 06:43:04;;;;;;;10.07;2.35;;;20.20;92.70;;;;;;5032723;28;20265;-80
2022/06/19 06:45:30;;;;;;;11.50;2.13;;;20.80;91.70;;;;;;5033037;28;20607;-81
2022/06/19 06:47:55;;;;;;;10.02;2.83;;;20.60;92.10;;;;;;5033456;28;20171;-80
2022/06/19 06:50:21;;;;;;;8.65;2.10;;;21.00;92.00;;;;;;5034447;28;20563;-79
2022/06/19 06:52:47;;;;;;;8.57;1.98;;;20.60;91.40;;;;;;5031766;28;20663;-79
2022/06/19 06:55:13;;;;;;;10.05;2.40;;;20.80;92.10;;;;;;5032701;28;20585;-79
2022/06/19 06:57:39;;;;;;;10.40;1.98;;;21.60;91.40;;;;;;5032589;28;20172;-79
2022/06/19 07:00:09;;;;;;;9.13;2.15;;;21.40;90.80;;;;;;5032791;28;20229;-79
2022/06/19 07:02:35;;;;;;;10.40;2.33;;;21.30;90.90;;;;;;5031274;28;20278;-79
2022/06/19 07:05:03;;;;;;;10.88;2.25;;;22.00;90.50;;;;;;5032319;28;20659;-80
2022/06/19 07:07:29;;;;;;;10.85;2.55;;;22.20;90.40;;;;;;5031299;28;20176;-81
2022/06/19 07:09:56;;;;;;;9.00;2.33;;;22.30;89.60;;;;;;5033167;28;20218;-80
2022/06/19 07:12:21;;;;;;;7.32;1.90;;;22.70;88.90;;;;;;5033491;28;20606;-81
2022/06/19 07:14:47;;;;;;;9.57;2.20;;;22.20;88.50;;;;;;5033380;28;20709;-82
2022/06/19 07:17:13;;;;;;;9.63;2.60;;;22.50;88.40;;;;;;5032839;28;20179;-84
2022/06/19 07:19:38;;;;;;;10.63;2.30;;;22.60;89.30;;;;;;5035216;28;20270;-83
2022/06/19 07:22:04;;;;;;;9.45;2.30;;;22.40;87.00;;;;;;5032240;28;20567;-81
2022/06/19 07:24:30;;;;;;;6.97;2.10;;;22.50;88.10;;;;;;5031885;28;20187;-81
2022/06/19 07:26:56;;;;;;;7.95;2.17;;;23.30;87.60;;;;;;5031317;28;20195;-87
2022/06/19 07:29:21;;;;;;;13.27;2.33;;;23.20;86.80;;;;;;5026192;28;20203;-89
2022/06/19 07:31:47;;;;;;;21.90;2.85;;;23.50;85.50;;;;;;5027383;28;20258;-86
2022/06/19 07:34:12;;;;;;;14.77;2.70;;;22.80;86.80;;;;;;4994134;28;20186;-87
2022/06/19 07:36:38;;;;;;;7.63;2.30;;;22.60;87.40;;;;;;4994143;28;20539;-84
2022/06/19 07:39:04;;;;;;;8.98;2.30;;;21.70;86.90;;;;;;4997446;28;20598;-85
2022/06/19 07:41:30;;;;;;;6.65;1.95;;;22.50;88.10;;;;;;5029228;28;20695;-87
2022/06/19 07:43:56;;;;;;;9.32;2.03;;;22.80;85.70;;;;;;5026158;28;20201;-88
2022/06/19 07:46:23;;;;;;;9.18;2.45;;;23.30;86.80;;;;;;5027859;28;20253;-86
2022/06/19 07:51:33;;;;;;;8.57;2.25;;;23.50;85.90;;;;;;5001905;28;20738;-87
2022/06/19 07:54:00;;;;;;;10.95;2.10;;;23.60;86.10;;;;;;5032907;28;20175;-88
2022/06/19 07:56:26;;;;;;;5.93;1.98;;;23.90;85.50;;;;;;5029185;28;20175;-84
2022/06/19 07:58:52;;;;;;;7.18;1.85;;;23.90;85.80;;;;;;5001198;28;20205;-83
2022/06/19 08:01:18;;;;;;;11.13;1.98;;;23.50;86.20;;;;;;5032392;28;20178;-85
2022/06/19 08:03:43;;;;;;;11.18;2.35;;;22.90;85.70;;;;;;5030340;28;20544;-85
2022/06/19 08:06:10;;;;;;;6.82;2.13;;;22.70;87.80;;;;;;5030919;28;20206;-86
2022/06/19 08:08:36;;;;;;;9.25;2.35;;;22.60;88.60;;;;;;5033782;28;20268;-85
2022/06/19 08:11:02;;;;;;;16.17;3.22;;;22.40;88.00;;;;;;5033310;28;20656;-86
2022/06/19 08:13:31;;;;;;;8.90;1.98;;;22.20;89.20;;;;;;5034508;28;20199;-86
2022/06/19 08:15:59;;;;;;;10.88;2.30;;;22.30;89.70;;;;;;5032182;28;20194;-85
2022/06/19 08:18:27;;;;;;;10.35;2.25;;;22.10;89.90;;;;;;5032725;28;20247;-85
2022/06/19 08:20:53;;;;;;;6.07;1.95;;;22.20;89.50;;;;;;5032311;28;20287;-84
2022/06/19 08:23:19;;;;;;;9.27;2.10;;;22.60;89.50;;;;;;5033032;28;20196;-84
2022/06/19 08:25:46;;;;;;;7.10;2.28;;;22.50;89.20;;;;;;5000171;28;20198;-85
2022/06/19 08:28:15;;;;;;;14.05;2.42;;;22.30;89.50;;;;;;5031797;28;20262;-85
2022/06/19 08:30:43;;;;;;;12.57;2.38;;;22.20;90.10;;;;;;5033408;28;20171;-84
2022/06/19 08:33:09;;;;;;;9.18;2.25;;;22.50;89.80;;;;;;5032687;28;20195;-85
2022/06/19 08:35:45;;;;;;;11.80;2.63;;;22.40;89.90;;;;;;5030979;28;20215;-84
2022/06/19 08:38:20;;;;;;;8.85;2.25;;;22.10;90.60;;;;;;5027539;28;20611;-86
2022/06/19 08:41:03;;;;;;;8.68;2.15;;;22.30;90.40;;;;;;4975929;28;20207;-83
2022/06/19 08:44:04;;;;;;;15.50;2.95;;;22.80;89.50;;;;;;5011832;28;20228;-85
2022/06/19 08:47:01;;;;;;;10.70;2.30;;;22.70;90.10;;;;;;5011627;28;20684;-85
2022/06/19 08:49:52;;;;;;;14.52;2.70;;;23.50;89.70;;;;;;5008658;28;20188;-84
2022/06/19 08:52:26;;;;;;;14.65;2.50;;;23.00;90.10;;;;;;5006965;28;20731;-79
2022/06/19 08:55:15;;;;;;;11.73;2.65;;;23.30;89.50;;;;;;5007950;28;20553;-79
2022/06/19 08:57:55;;;;;;;7.68;2.22;;;23.50;89.30;;;;;;4976412;28;20641;-79
2022/06/19 09:00:49;;;;;;;12.73;2.58;;;23.70;89.40;;;;;;5007358;28;20262;-78
2022/06/19 09:07:07;;;;;;;10.10;2.42;;;23.30;89.80;;;;;;4976773;28;20184;-80
2022/06/19 09:09:46;;;;;;;12.73;2.95;;;23.30;89.50;;;;;;4956047;28;20321;-79
2022/06/19 09:12:36;;;;;;;7.93;2.33;;;23.50;90.50;;;;;;5007879;28;20219;-79
2022/06/19 09:15:17;;;;;;;9.93;2.47;;;23.10;90.40;;;;;;5007635;28;20743;-79
2022/06/19 09:18:15;;;;;;;11.75;3.03;;;23.10;90.30;;;;;;5007915;28;20632;-79
2022/06/19 09:20:44;;;;;;;12.95;2.72;;;22.70;91.00;;;;;;4969223;28;20247;-80
2022/06/19 09:23:30;;;;;;;12.50;2.78;;;22.90;91.10;;;;;;5005470;28;20250;-78
2022/06/19 09:26:08;;;;;;;12.57;2.63;;;23.00;91.20;;;;;;5006990;28;20668;-79
2022/06/19 09:28:52;;;;;;;7.88;2.50;;;23.60;90.40;;;;;;5006972;28;20703;-79
2022/06/19 09:31:38;;;;;;;10.05;2.55;;;23.10;90.40;;;;;;5007957;28;20243;-79
2022/06/19 09:34:08;;;;;;;14.27;2.97;;;22.70;90.70;;;;;;5009135;28;20270;-79
2022/06/19 09:36:55;;;;;;;9.90;2.47;;;22.70;90.70;;;;;;5008230;28;20264;-79
2022/06/19 09:39:25;;;;;;;17.17;2.75;;;22.50;91.30;;;;;;5007681;28;20788;-79
2022/06/19 09:42:00;;;;;;;15.93;2.90;;;22.40;91.50;;;;;;5007164;28;20200;-79
2022/06/19 09:44:48;;;;;;;10.73;3.10;;;22.80;91.40;;;;;;5007617;28;20203;-79
2022/06/19 09:47:24;;;;;;;11.60;2.78;;;22.30;91.40;;;;;;4976601;28;20621;-79
2022/06/19 09:50:04;;;;;;;9.75;2.47;;;22.50;91.90;;;;;;5009120;28;20184;-79
2022/06/19 09:52:57;;;;;;;13.40;2.95;;;23.20;91.30;;;;;;5008398;28;20195;-79
2022/06/19 09:55:37;;;;;;;11.30;2.92;;;23.30;90.70;;;;;;4972662;28;20188;-79
2022/06/19 09:58:32;;;;;;;15.38;2.88;;;23.60;91.00;;;;;;5009535;28;20604;-79
2022/06/19 10:00:59;;;;;;;16.15;2.67;;;23.40;91.20;;;;;;5008744;28;20582;-79
2022/06/19 10:03:28;;;;;;;11.55;2.75;;;22.80;91.40;;;;;;5008174;28;20225;-78
2022/06/19 10:05:59;;;;;;;10.95;2.67;;;22.30;91.70;;;;;;5007709;28;20176;-79
2022/06/19 10:08:47;;;;;;;15.55;2.97;;;22.40;91.20;;;;;;4977556;28;20172;-79
2022/06/19 10:11:22;;;;;;;15.73;3.00;;;22.10;91.70;;;;;;4970019;28;20180;-79
2022/06/19 10:14:03;;;;;;;9.70;3.40;;;22.30;91.90;;;;;;5011101;28;20179;-78
2022/06/19 10:16:35;;;;;;;27.33;3.13;;;22.20;91.90;;;;;;5011656;28;20174;-79
2022/06/19 10:19:10;;;;;;;17.55;2.67;;;21.90;92.40;;;;;;5011659;28;20627;-79
2022/06/19 10:25:06;;;;;;;12.82;2.80;;;21.70;92.40;;;;;;4980738;28;20191;-79
2022/06/19 10:27:39;;;;;;;12.43;2.85;;;21.60;93.20;;;;;;5010672;28;20172;-79
2022/06/19 10:30:14;;;;;;;24.75;3.17;;;22.00;92.80;;;;;;5010627;28;20587;-79
2022/06/19 10:32:49;;;;;;;14.88;3.03;;;22.10;92.80;;;;;;5009080;28;20573;-78
2022/06/19 10:35:37;;;;;;;10.95;2.40;;;22.40;92.70;;;;;;5008290;28;20187;-79
2022/06/19 10:38:28;;;;;;;16.13;3.25;;;22.60;92.90;;;;;;5008133;28;20176;-79
2022/06/19 10:42:00;;;;;;;16.30;2.80;;;22.70;92.20;;;;;;5007940;28;20270;-79
2022/06/19 10:44:25;;;;;;;13.98;3.50;;;23.20;92.40;;;;;;4980592;28;20180;-79
2022/06/19 10:47:06;;;;;;;11.77;2.63;;;22.50;92.00;;;;;;4976742;28;20195;-79
2022/06/19 10:49:47;;;;;;;24.60;3.35;;;22.60;92.00;;;;;;5011581;28;20264;-79
2022/06/19 10:52:37;;;;;;;10.80;2.35;;;23.30;92.20;;;;;;5010483;28;20250;-79
2022/06/19 10:55:12;;;;;;;9.95;2.40;;;24.20;91.00;;;;;;5010310;28;20169;-79
2022/06/19 10:58:17;;;;;;;11.95;2.67;;;24.90;90.60;;;;;;5011203;28;20268;-79
2022/06/19 11:00:44;;;;;;;11.40;2.97;;;24.40;89.40;;;;;;5011320;28;20665;-80
2022/06/19 11:06:10;;;;;;;14.88;2.65;;;24.70;89.70;;;;;;4976631;28;20178;-79
2022/06/19 11:08:39;;;;;;;14.30;2.72;;;25.20;90.00;;;;;;5007992;28;20179;-79
2022/06/19 11:11:06;;;;;;;11.00;2.80;;;24.80;88.30;;;;;;5008152;28;20176;-80
2022/06/19 11:13:56;;;;;;;15.15;2.80;;;24.90;89.80;;;;;;5009995;28;20196;-79
2022/06/19 11:16:22;;;;;;;9.38;2.75;;;25.40;88.40;;;;;;5010722;28;20191;-80
2022/06/19 11:18:50;;;;;;;11.82;2.55;;;24.60;89.30;;;;;;5009311;28;20286;-79
2022/06/19 11:21:21;;;;;;;15.00;2.60;;;25.10;90.00;;;;;;5010462;28;20230;-79
2022/06/19 11:23:47;;;;;;;15.73;3.22;;;25.40;89.20;;;;;;5009803;28;20172;-79
2022/06/19 11:26:27;;;;;;;16.48;3.13;;;26.10;88.10;;;;;;5009994;28;20187;-79
2022/06/19 11:29:15;;;;;;;10.20;2.33;;;25.90;87.40;;;;;;4978290;28;20191;-80
2022/06/19 11:32:17;;;;;;;11.32;2.88;;;25.40;86.10;;;;;;4978220;28;20196;-82
2022/06/19 11:34:54;;;;;;;19.20;3.13;;;24.70;90.60;;;;;;4978347;28;20179;-79
2022/06/19 11:37:37;;;;;;;11.02;3.03;;;24.60;90.30;;;;;;4977494;28;20172;-79
2022/06/19 11:40:06;;;;;;;11.55;2.72;;;24.90;88.90;;;;;;4977508;28;20623;-79
2022/06/19 11:42:33;;;;;;;15.48;2.83;;;25.00;90.20;;;;;;4976920;28;20563;-79
2022/06/19 11:45:19;;;;;;;12.43;2.58;;;25.50;88.00;;;;;;4977504;28;20176;-80
2022/06/19 11:47:47;;;;;;;14.60;2.30;;;25.20;90.10;;;;;;4974021;28;20590;-79
2022/06/19 11:50:33;;;;;;;9.65;2.30;;;24.70;87.50;;;;;;4977773;28;20707;-79
2022/06/19 11:53:01;;;;;;;13.32;2.80;;;24.40;89.40;;;;;;4976997;28;20200;-79
2022/06/19 11:55:31;;;;;;;9.82;2.72;;;24.90;86.40;;;;;;4978555;28;20172;-79
2022/06/19 11:58:11;;;;;;;10.88;2.25;;;25.10;86.30;;;;;;4977015;28;20825;-78
2022/06/19 12:00:37;;;;;;;9.70;2.47;;;25.50;85.30;;;;;;4973109;28;20703;-77
2022/06/19 12:03:23;;;;;;;8.88;2.25;;;24.90;85.60;;;;;;4973451;28;20227;-77
2022/06/19 12:05:56;;;;;;;9.90;2.22;;;24.60;87.20;;;;;;4973942;28;20211;-77
2022/06/19 12:08:34;;;;;;;7.90;2.28;;;25.30;86.00;;;;;;4973871;28;20660;-77
2022/06/19 12:11:02;;;;;;;8.98;2.40;;;25.20;86.60;;;;;;4973791;28;20179;-77
2022/06/19 12:13:37;;;;;;;9.00;2.63;;;24.30;87.20;;;;;;4973557;28;20199;-77
2022/06/19 12:16:09;;;;;;;11.07;2.30;;;24.50;87.50;;;;;;4973170;28;20648;-76
2022/06/19 12:18:35;;;;;;;12.07;3.53;;;24.50;86.90;;;;;;4974776;28;20728;-77
2022/06/19 12:21:21;;;;;;;11.10;2.70;;;24.60;86.40;;;;;;4973065;28;20182;-77
2022/06/19 12:24:07;;;;;;;8.93;2.72;;;24.40;87.50;;;;;;4973277;28;20266;-77
2022/06/19 12:26:44;;;;;;;7.93;2.20;;;24.80;87.20;;;;;;4973264;28;20641;-77
2022/06/19 12:29:33;;;;;;;7.57;2.65;;;24.50;87.90;;;;;;4973027;28;20282;-77
2022/06/19 12:32:08;;;;;;;8.98;2.40;;;24.80;87.50;;;;;;4972846;28;20196;-77
2022/06/19 12:34:47;;;;;;;9.68;2.83;;;24.90;88.00;;;;;;4972172;28;20183;-77
2022/06/19 12:37:21;;;;;;;5.90;2.25;;;24.40;87.50;;;;;;4973198;28;20663;-77
2022/06/19 12:39:46;;;;;;;9.38;2.92;;;24.50;88.00;;;;;;4972712;28;20691;-77
2022/06/19 12:42:15;;;;;;;11.65;2.80;;;24.40;87.20;;;;;;4972478;28;20197;-76
2022/06/19 12:45:07;;;;;;;10.88;1.95;;;23.70;89.50;;;;;;4972579;28;20192;-77
2022/06/19 12:47:42;;;;;;;10.13;2.30;;;24.20;88.00;;;;;;4972771;28;20175;-76
2022/06/19 12:50:28;;;;;;;13.63;2.72;;;24.20;88.10;;;;;;4972535;28;20172;-77
2022/06/19 12:52:57;;;;;;;6.85;2.33;;;24.00;88.50;;;;;;4972059;28;20219;-77
2022/06/19 12:55:49;;;;;;;10.18;2.28;;;24.20;89.50;;;;;;5102963;27;20621;-78
2022/06/19 12:58:29;;;;;;;8.27;2.70;;;24.00;89.90;;;;;;5069055;28;20547;-79
2022/06/19 13:01:09;;;;;;;8.90;2.35;;;24.00;89.00;;;;;;5068197;28;20165;-77
2022/06/19 13:03:36;;;;;;;9.15;1.92;;;23.80;89.00;;;;;;5068386;28;20203;-77
2022/06/19 13:06:20;;;;;;;11.68;2.25;;;23.60;90.90;;;;;;5067480;28;20184;-79
2022/06/19 13:09:01;;;;;;;8.70;2.15;;;24.30;89.10;;;;;;5069206;28;20174;-79
2022/06/19 13:11:32;;;;;;;7.85;2.50;;;24.40;87.90;;;;;;5069776;28;20188;-79
2022/06/19 13:14:23;;;;;;;13.57;2.20;;;24.20;89.20;;;;;;5070950;28;20189;-79
2022/06/19 13:17:08;;;;;;;10.00;2.35;;;24.00;91.10;;;;;;5070454;28;20176;-80